Time;durP1;ratioP1;P1;durP2;ratioP2;P2;SDS_P1;SDS_P2;PMS_P1;PMS_P2;Temp;Humidity;BMP_temperature;BMP_pressure;BME280_temperature;BME280_humidity;BME280_pressure;Samples;Min_cycle;Max_cycle;Signal;HPM_P1;HPM_P2
2022/06/11 00:01:44;;;;;;;0.28;0.28;;;;;;;16.20;67.69;99103.41;4767709;30;20309;-83
2022/06/11 00:04:14;;;;;;;0.20;0.20;;;;;;;16.13;67.80;99097.44;4767788;30;20138;-83
2022/06/11 00:06:45;;;;;;;0.30;0.30;;;;;;;16.06;68.06;99095.03;4763598;30;20059;-83
2022/06/11 00:09:13;;;;;;;0.30;0.30;;;;;;;16.01;68.35;99106.75;4767309;30;20106;-83
2022/06/11 00:11:43;;;;;;;0.30;0.30;;;;;;;16.04;68.39;99094.50;4766381;30;20060;-84
2022/06/11 00:14:11;;;;;;;0.20;0.20;;;;;;;16.03;68.37;99104.59;4767539;30;20055;-83
2022/06/11 00:16:39;;;;;;;0.20;0.20;;;;;;;15.97;68.32;99102.94;4767520;30;20063;-82
2022/06/11 00:19:07;;;;;;;0.30;0.30;;;;;;;15.96;68.79;99114.13;4767443;30;20112;-84
2022/06/11 00:21:39;;;;;;;0.30;0.30;;;;;;;15.93;68.73;99103.81;4767532;30;20056;-84
2022/06/11 00:24:07;;;;;;;0.20;0.20;;;;;;;15.91;68.82;99117.69;4767323;30;20055;-84
2022/06/11 00:26:34;;;;;;;0.30;0.30;;;;;;;15.89;68.94;99119.06;4770697;30;20056;-83
2022/06/11 00:29:04;;;;;;;0.30;0.30;;;;;;;15.92;68.72;99113.84;4769302;30;20130;-82
2022/06/11 00:31:31;;;;;;;0.30;0.30;;;;;;;15.98;68.36;99109.22;4769505;30;20065;-83
2022/06/11 00:33:59;;;;;;;0.20;0.20;;;;;;;15.92;68.55;99110.31;4770245;30;20146;-83
2022/06/11 00:36:26;;;;;;;0.30;0.30;;;;;;;15.78;68.85;99108.19;4770833;30;20056;-82
2022/06/11 00:38:53;;;;;;;0.20;0.20;;;;;;;15.76;69.24;99110.38;4770969;30;20058;-83
2022/06/11 00:41:25;;;;;;;0.30;0.30;;;;;;;15.77;69.31;99114.75;4769394;30;20142;-83
2022/06/11 00:43:53;;;;;;;0.30;0.30;;;;;;;15.73;69.28;99121.00;4769309;30;20138;-84
2022/06/11 00:46:42;;;;;;;0.30;0.30;;;;;;;15.68;69.58;99126.41;4770553;30;20059;-83
2022/06/11 00:49:19;;;;;;;0.30;0.30;;;;;;;15.60;69.81;99131.31;4770537;30;20059;-83
2022/06/11 00:52:03;;;;;;;0.20;0.20;;;;;;;15.51;70.01;99130.25;4768751;30;20077;-82
2022/06/11 00:54:32;;;;;;;0.20;0.20;;;;;;;15.49;69.97;99126.16;4752945;30;20452;-83
2022/06/11 00:57:01;;;;;;;0.20;0.20;;;;;;;15.47;69.90;99118.28;4767653;30;20067;-83
2022/06/11 00:59:39;;;;;;;0.20;0.20;;;;;;;15.48;69.83;99129.97;4770126;30;20050;-83
2022/06/11 01:02:12;;;;;;;0.30;0.30;;;;;;;15.46;70.00;99124.81;4776303;30;20614;-83
2022/06/11 01:04:39;;;;;;;0.20;0.20;;;;;;;15.40;70.44;99134.06;4780869;30;20056;-83
2022/06/11 01:07:31;;;;;;;0.20;0.20;;;;;;;15.34;70.54;99129.69;4770327;30;20055;-84
2022/06/11 01:10:16;;;;;;;0.20;0.20;;;;;;;15.33;70.67;99128.91;4768922;30;20056;-83
2022/06/11 01:13:30;;;;;;;0.20;0.20;;;;;;;15.30;71.28;99151.19;4769971;30;20607;-86
2022/06/11 01:16:06;;;;;;;0.20;0.20;;;;;;;15.28;70.91;99147.13;4770168;30;20147;-86
2022/06/11 01:18:55;;;;;;;0.30;0.30;;;;;;;15.31;71.09;99138.41;4769379;30;20489;-86
2022/06/11 01:21:37;;;;;;;0.28;0.28;;;;;;;15.30;70.94;99140.31;4769294;30;20056;-83
2022/06/11 01:24:43;;;;;;;0.30;0.30;;;;;;;15.31;71.03;99144.66;4769864;30;20663;-83
2022/06/11 01:27:22;;;;;;;0.30;0.30;;;;;;;15.25;71.05;99147.66;4769634;30;20058;-85
2022/06/11 01:29:52;;;;;;;0.22;0.22;;;;;;;15.27;71.16;99148.22;4770044;30;20531;-85
2022/06/11 01:32:31;;;;;;;0.30;0.30;;;;;;;15.29;70.90;99157.75;4768808;30;20483;-84
2022/06/11 01:35:12;;;;;;;0.30;0.30;;;;;;;15.27;71.21;99148.22;4770200;30;20052;-84
2022/06/11 01:37:52;;;;;;;0.30;0.30;;;;;;;15.29;71.00;99159.63;4757307;30;20413;-83
2022/06/11 01:40:38;;;;;;;0.30;0.30;;;;;;;15.39;71.07;99154.16;4770446;30;20047;-84
2022/06/11 01:43:22;;;;;;;0.30;0.30;;;;;;;15.36;71.28;99154.72;4769822;30;20055;-84
2022/06/11 01:45:55;;;;;;;0.30;0.30;;;;;;;15.33;71.26;99158.00;4754773;30;20055;-84
2022/06/11 01:48:25;;;;;;;0.30;0.30;;;;;;;15.38;71.34;99168.88;4770192;30;20101;-85
2022/06/11 01:51:08;;;;;;;0.30;0.30;;;;;;;15.45;70.56;99168.59;4768496;30;20051;-84
2022/06/11 01:54:07;;;;;;;0.30;0.30;;;;;;;15.48;70.74;99158.00;4770080;30;20056;-84
2022/06/11 01:56:48;;;;;;;0.30;0.30;;;;;;;15.53;70.55;99157.19;4769856;30;20063;-84
2022/06/11 01:59:52;;;;;;;0.20;0.20;;;;;;;15.61;70.57;99151.97;4768650;30;20056;-84
2022/06/11 02:02:27;;;;;;;0.30;0.30;;;;;;;15.59;70.53;99153.34;4769886;30;20063;-84
2022/06/11 02:05:10;;;;;;;0.30;0.30;;;;;;;15.63;70.65;99154.44;4768480;30;20087;-84
2022/06/11 02:07:46;;;;;;;0.30;0.30;;;;;;;15.67;70.44;99150.06;4768500;30;20581;-82
2022/06/11 02:10:35;;;;;;;0.30;0.30;;;;;;;15.77;70.20;99143.81;4768818;30;20453;-83
2022/06/11 02:13:09;;;;;;;0.30;0.30;;;;;;;15.78;70.15;99142.75;4768313;30;20060;-83
2022/06/11 02:15:39;;;;;;;0.30;0.30;;;;;;;15.82;70.14;99147.38;4769530;30;20052;-83
2022/06/11 02:18:11;;;;;;;0.20;0.20;;;;;;;15.87;70.33;99137.56;4768587;30;20047;-82
2022/06/11 02:21:05;;;;;;;0.30;0.30;;;;;;;15.98;70.00;99134.53;4754093;30;20053;-84
2022/06/11 02:23:42;;;;;;;0.20;0.20;;;;;;;16.02;69.85;99129.34;4768804;30;20059;-84
2022/06/11 02:26:31;;;;;;;0.30;0.30;;;;;;;16.04;69.66;99117.09;4769734;30;20070;-83
2022/06/11 02:28:59;;;;;;;0.30;0.30;;;;;;;16.14;69.39;99123.59;4769577;30;20059;-83
2022/06/11 02:31:32;;;;;;;0.30;0.30;;;;;;;16.18;69.60;99121.94;4768106;30;20054;-83
2022/06/11 02:34:05;;;;;;;0.30;0.30;;;;;;;16.23;69.80;99116.50;4769335;30;20058;-82
2022/06/11 02:36:45;;;;;;;0.20;0.20;;;;;;;16.31;69.82;99115.91;4769194;30;20105;-83
2022/06/11 02:39:12;;;;;;;0.20;0.20;;;;;;;16.38;69.60;99110.13;4769204;30;20117;-83
2022/06/11 02:41:41;;;;;;;0.30;0.30;;;;;;;16.45;69.34;99122.34;4782701;30;20119;-82
2022/06/11 02:44:09;;;;;;;0.20;0.20;;;;;;;16.50;68.74;99123.44;4767802;30;20063;-82
2022/06/11 02:46:43;;;;;;;0.20;0.20;;;;;;;16.67;68.42;99123.88;4768011;30;20059;-83
2022/06/11 02:49:23;;;;;;;0.20;0.20;;;;;;;16.82;68.39;99132.00;4768524;30;20559;-82
2022/06/11 02:51:53;;;;;;;0.20;0.20;;;;;;;16.94;67.85;99141.72;4782205;30;20066;-83
2022/06/11 02:54:21;;;;;;;0.30;0.30;;;;;;;17.04;67.39;99152.56;4769212;30;20054;-84
2022/06/11 02:56:51;;;;;;;0.30;0.30;;;;;;;17.13;67.06;99153.59;4768492;30;20056;-83
2022/06/11 02:59:20;;;;;;;0.20;0.20;;;;;;;17.23;67.04;99149.97;4782576;30;20578;-84
2022/06/11 03:01:47;;;;;;;0.30;0.30;;;;;;;17.31;67.31;99150.16;4767792;30;20048;-82
2022/06/11 03:04:15;;;;;;;0.20;0.20;;;;;;;17.40;67.50;99138.66;4768888;30;20078;-83
2022/06/11 03:06:42;;;;;;;0.20;0.20;;;;;;;17.36;67.16;99134.88;4768570;30;20089;-83
2022/06/11 03:09:14;;;;;;;0.30;0.30;;;;;;;17.47;67.00;99139.97;4767523;30;20102;-82
2022/06/11 03:11:41;;;;;;;0.20;0.20;;;;;;;17.63;66.54;99131.63;4776246;30;20074;-83
2022/06/11 03:14:09;;;;;;;0.30;0.30;;;;;;;17.72;66.40;99119.81;4776928;30;20090;-83
2022/06/11 03:16:37;;;;;;;0.20;0.20;;;;;;;17.82;66.41;99115.34;4769501;30;20082;-83
2022/06/11 03:19:06;;;;;;;0.20;0.20;;;;;;;17.87;65.59;99112.56;4767996;30;20587;-83
2022/06/11 03:21:34;;;;;;;0.20;0.20;;;;;;;17.94;64.70;99113.03;4768855;30;20056;-84
2022/06/11 03:24:01;;;;;;;0.20;0.20;;;;;;;18.04;64.78;99123.84;4768502;30;20056;-84
2022/06/11 03:26:29;;;;;;;0.20;0.20;;;;;;;18.17;64.84;99123.13;4768584;30;20067;-83
2022/06/11 03:28:56;;;;;;;0.30;0.30;;;;;;;18.25;64.22;99123.59;4767783;30;20078;-83
2022/06/11 03:31:23;;;;;;;0.30;0.30;;;;;;;18.42;63.53;99129.38;4767474;30;20149;-84
2022/06/11 03:33:50;;;;;;;0.30;0.30;;;;;;;18.55;63.26;99133.31;4769041;30;20062;-81
2022/06/11 03:36:18;;;;;;;0.30;0.30;;;;;;;18.66;62.58;99132.09;4768959;30;20062;-83
2022/06/11 03:38:47;;;;;;;0.28;0.28;;;;;;;18.78;62.48;99137.94;4768415;30;20056;-83
2022/06/11 03:41:15;;;;;;;0.20;0.20;;;;;;;18.91;61.70;99136.38;4752638;30;20059;-83
2022/06/11 03:43:42;;;;;;;0.20;0.20;;;;;;;19.04;60.88;99141.13;4768414;30;20051;-84
2022/06/11 03:46:10;;;;;;;0.30;0.30;;;;;;;19.13;60.06;99141.25;4768428;30;20121;-84
2022/06/11 03:48:37;;;;;;;0.20;0.20;;;;;;;19.30;59.66;99153.59;4768272;30;20055;-83
2022/06/11 03:51:06;;;;;;;0.20;0.20;;;;;;;19.42;59.22;99148.44;4767024;30;20083;-85
2022/06/11 03:53:34;;;;;;;0.20;0.20;;;;;;;19.48;58.16;99142.59;4762652;30;20067;-82
2022/06/11 03:56:05;;;;;;;0.20;0.20;;;;;;;19.66;57.96;99156.53;4757674;30;20067;-84
2022/06/11 03:58:35;;;;;;;0.20;0.20;;;;;;;19.79;57.49;99158.50;4750992;30;20060;-84
2022/06/11 04:01:15;;;;;;;0.20;0.20;;;;;;;19.90;56.73;99157.22;4752937;30;20066;-84
2022/06/11 04:03:49;;;;;;;0.30;0.30;;;;;;;20.05;55.59;99158.88;4753970;30;20525;-83
2022/06/11 04:06:20;;;;;;;0.20;0.20;;;;;;;20.17;54.83;99152.06;4754379;30;20052;-83
2022/06/11 04:08:48;;;;;;;0.20;0.20;;;;;;;20.28;54.12;99148.81;4754002;30;20470;-83
2022/06/11 04:11:16;;;;;;;0.20;0.20;;;;;;;20.42;53.90;99151.53;4754819;30;20068;-83
2022/06/11 04:13:44;;;;;;;0.20;0.20;;;;;;;20.52;52.81;99153.25;4753688;30;20052;-84
2022/06/11 04:16:34;;;;;;;0.20;0.20;;;;;;;20.59;52.43;99144.66;4759165;30;20052;-85
2022/06/11 04:19:04;;;;;;;0.20;0.20;;;;;;;20.48;53.15;99142.06;4763978;30;20531;-84
2022/06/11 04:21:33;;;;;;;0.20;0.20;;;;;;;20.53;52.40;99135.66;4760728;30;20049;-84
2022/06/11 04:24:01;;;;;;;0.20;0.20;;;;;;;20.65;52.53;99137.94;4760278;30;20085;-85
2022/06/11 04:26:36;;;;;;;0.20;0.20;;;;;;;20.72;51.55;99138.31;4760733;30;20061;-85
2022/06/11 04:29:05;;;;;;;0.30;0.30;;;;;;;20.76;51.52;99134.66;4761293;30;20599;-84
2022/06/11 04:31:36;;;;;;;0.20;0.20;;;;;;;20.88;50.98;99136.84;4755611;30;20056;-83
2022/06/11 04:34:13;;;;;;;0.20;0.20;;;;;;;20.94;50.44;99124.66;4758875;30;20052;-84
2022/06/11 04:36:45;;;;;;;0.20;0.20;;;;;;;21.06;50.07;99132.31;4756718;30;20512;-82
2022/06/11 04:39:15;;;;;;;0.25;0.25;;;;;;;21.09;49.71;99131.72;4753459;30;20067;-81
2022/06/11 04:41:43;;;;;;;0.30;0.30;;;;;;;21.31;48.87;99143.81;4759000;30;20048;-82
2022/06/11 04:44:11;;;;;;;0.20;0.20;;;;;;;21.39;48.21;99132.91;4768823;30;20056;-84
2022/06/11 04:46:38;;;;;;;0.20;0.20;;;;;;;21.54;48.19;99139.13;4754683;30;20056;-82
2022/06/11 04:49:08;;;;;;;0.20;0.20;;;;;;;21.53;46.88;99141.06;4755591;30;20467;-83
2022/06/11 04:51:36;;;;;;;0.20;0.20;;;;;;;21.63;46.59;99146.31;4752880;30;20048;-83
2022/06/11 04:54:04;;;;;;;0.30;0.30;;;;;;;21.72;45.94;99153.78;4761094;30;20056;-81
2022/06/11 04:56:31;;;;;;;0.20;0.20;;;;;;;21.81;45.52;99162.88;4768036;30;20346;-82
2022/06/11 04:58:58;;;;;;;0.30;0.30;;;;;;;21.94;45.19;99145.50;4766090;30;20428;-82
2022/06/11 05:01:30;;;;;;;0.20;0.20;;;;;;;22.16;44.73;99163.06;4755044;30;20060;-81
2022/06/11 05:03:57;;;;;;;0.20;0.20;;;;;;;22.27;43.82;99162.47;4759130;30;20062;-80
2022/06/11 05:06:28;;;;;;;0.20;0.20;;;;;;;22.45;43.35;99171.56;4762789;30;20396;-81
2022/06/11 05:08:56;;;;;;;0.20;0.20;;;;;;;22.76;42.55;99164.34;4768887;30;20358;-84
2022/06/11 05:11:23;;;;;;;0.20;0.20;;;;;;;22.94;43.34;99164.06;4769024;30;20060;-81
2022/06/11 05:13:50;;;;;;;0.20;0.20;;;;;;;23.07;44.18;99159.56;4754254;30;20146;-82
2022/06/11 05:16:21;;;;;;;0.20;0.20;;;;;;;23.09;43.86;99150.97;4768600;30;20114;-82
2022/06/11 05:18:49;;;;;;;0.20;0.20;;;;;;;23.18;42.56;99170.25;4769406;30;20058;-84
2022/06/11 05:21:16;;;;;;;0.20;0.20;;;;;;;23.35;42.82;99161.97;4775968;30;20059;-82
2022/06/11 05:23:43;;;;;;;0.20;0.20;;;;;;;23.59;42.17;99165.00;4767722;30;20056;-84
2022/06/11 05:26:16;;;;;;;0.20;0.20;;;;;;;23.59;41.06;99164.19;4763627;30;20061;-82
2022/06/11 05:28:44;;;;;;;0.20;0.20;;;;;;;23.59;40.59;99164.19;4751903;30;20086;-83
2022/06/11 05:31:11;;;;;;;0.20;0.20;;;;;;;23.78;40.68;99161.94;4736682;30;20132;-81
2022/06/11 05:33:39;;;;;;;0.20;0.20;;;;;;;24.19;39.88;99156.91;4752337;30;20063;-83
2022/06/11 05:36:07;;;;;;;0.20;0.20;;;;;;;24.33;39.72;99163.03;4736805;30;20504;-87
2022/06/11 05:38:35;;;;;;;0.20;0.20;;;;;;;24.20;39.24;99162.09;4764442;30;20060;-83
2022/06/11 05:41:02;;;;;;;0.20;0.20;;;;;;;23.64;40.77;99158.53;4749576;30;20062;-83
2022/06/11 05:43:29;;;;;;;0.20;0.20;;;;;;;23.49;41.30;99161.78;4773754;30;20052;-84
2022/06/11 05:46:02;;;;;;;0.20;0.20;;;;;;;23.51;42.03;99165.03;4770648;30;20087;-87
2022/06/11 05:48:34;;;;;;;0.20;0.20;;;;;;;23.26;42.08;99161.16;4770671;30;20076;-84
2022/06/11 05:51:02;;;;;;;0.20;0.20;;;;;;;23.15;42.58;99166.22;4782584;30;20083;-85
2022/06/11 05:53:32;;;;;;;0.20;0.20;;;;;;;23.39;41.78;99164.88;4761615;30;20063;-86
2022/06/11 05:56:01;;;;;;;0.20;0.20;;;;;;;23.40;40.98;99161.00;4773380;30;20467;-85
2022/06/11 05:58:35;;;;;;;0.20;0.20;;;;;;;23.64;40.74;99161.28;4754386;30;20060;-87
2022/06/11 06:01:03;;;;;;;0.20;0.20;;;;;;;23.81;40.28;99154.94;4756652;30;20535;-88
2022/06/11 06:03:30;;;;;;;0.20;0.20;;;;;;;23.89;40.33;99158.81;4771278;30;20521;-88
2022/06/11 06:05:57;;;;;;;0.20;0.20;;;;;;;24.07;40.13;99162.31;4767169;30;20464;-85
2022/06/11 06:08:25;;;;;;;0.20;0.20;;;;;;;24.26;39.80;99159.97;4754350;30;20067;-85
2022/06/11 06:10:52;;;;;;;0.20;0.20;;;;;;;24.14;40.11;99165.38;4769041;30;20101;-83
2022/06/11 06:16:04;;;;;;;0.20;0.20;;;;;;;23.75;41.27;99172.78;4773631;30;20062;-87
2022/06/11 06:18:32;;;;;;;0.20;0.20;;;;;;;23.33;40.83;99172.50;4775585;30;20137;-86
2022/06/11 06:20:59;;;;;;;0.20;0.20;;;;;;;23.07;41.68;99178.03;4770454;30;20079;-85
2022/06/11 06:23:26;;;;;;;0.20;0.20;;;;;;;23.06;41.82;99184.66;4769903;30;20062;-88
2022/06/11 06:25:53;;;;;;;0.20;0.20;;;;;;;23.20;42.21;99190.81;4761852;30;20052;-85
2022/06/11 06:28:20;;;;;;;0.20;0.20;;;;;;;23.30;42.21;99184.97;4763507;30;20147;-86
2022/06/11 06:30:48;;;;;;;0.20;0.20;;;;;;;23.46;42.18;99187.25;4751950;30;20063;-88
2022/06/11 06:33:15;;;;;;;0.20;0.20;;;;;;;23.64;41.75;99185.25;4771360;30;20059;-87
2022/06/11 06:35:47;;;;;;;0.20;0.20;;;;;;;23.58;41.73;99190.16;4761848;30;20070;-89
2022/06/11 06:38:16;;;;;;;0.20;0.20;;;;;;;23.66;41.70;99192.06;4766441;30;20083;-88
2022/06/11 06:40:47;;;;;;;0.20;0.20;;;;;;;23.78;41.52;99191.44;4761063;30;20117;-89
2022/06/11 06:43:16;;;;;;;0.20;0.20;;;;;;;23.75;41.20;99194.81;4783022;30;20056;-86
2022/06/11 06:45:44;;;;;;;0.20;0.20;;;;;;;23.63;42.33;99195.47;4772797;30;20079;-87
2022/06/11 06:48:11;;;;;;;0.20;0.20;;;;;;;23.64;42.94;99183.31;4776829;30;20119;-88
2022/06/11 06:50:39;;;;;;;0.30;0.30;;;;;;;23.86;42.50;99192.56;4755043;30;20158;-88
2022/06/11 06:53:06;;;;;;;0.20;0.20;;;;;;;23.96;42.41;99194.94;4764763;30;20155;-89
2022/06/11 06:55:34;;;;;;;0.30;0.30;;;;;;;24.05;42.45;99190.19;4754533;30;20087;-87
2022/06/11 06:58:03;;;;;;;0.22;0.22;;;;;;;24.35;42.00;99198.53;4763424;30;20076;-87
2022/06/11 07:00:30;;;;;;;0.20;0.20;;;;;;;24.04;41.99;99201.56;4761510;30;20103;-89
2022/06/11 07:02:58;;;;;;;0.20;0.20;;;;;;;23.61;43.85;99200.50;4757089;30;20118;-87
2022/06/11 07:05:26;;;;;;;0.20;0.20;;;;;;;23.74;43.98;99205.03;4758221;30;20520;-89
2022/06/11 07:07:56;;;;;;;0.30;0.30;;;;;;;23.76;41.79;99213.78;4763324;30;20069;-89
2022/06/11 07:10:24;;;;;;;0.30;0.30;;;;;;;23.87;42.20;99196.91;4757859;30;20158;-88
2022/06/11 07:12:51;;;;;;;0.30;0.30;;;;;;;24.17;41.85;99195.84;4752018;30;20088;-89
2022/06/11 07:15:19;;;;;;;0.30;0.30;;;;;;;24.50;41.67;99203.50;4753540;30;20098;-89
2022/06/11 07:17:54;;;;;;;0.20;0.20;;;;;;;24.72;41.17;99188.63;4760827;30;20482;-87
2022/06/11 07:20:27;;;;;;;0.20;0.20;;;;;;;24.56;40.95;99187.56;4784050;30;20117;-86
2022/06/11 07:23:09;;;;;;;0.20;0.20;;;;;;;24.56;41.16;99185.66;4783233;30;20055;-88
2022/06/11 07:25:38;;;;;;;0.20;0.20;;;;;;;24.53;40.61;99191.00;4779123;30;20437;-87
2022/06/11 07:28:13;;;;;;;0.20;0.20;;;;;;;24.51;40.02;99194.13;4748701;30;20060;-87
2022/06/11 07:30:41;;;;;;;0.20;0.20;;;;;;;24.35;40.51;99206.81;4738619;30;20051;-88
2022/06/11 07:33:12;;;;;;;0.20;0.20;;;;;;;24.09;41.12;99204.97;4766127;29;20068;-89
2022/06/11 07:35:39;;;;;;;0.20;0.20;;;;;;;24.04;40.13;99212.59;4763179;30;20488;-87
2022/06/11 07:38:10;;;;;;;0.20;0.20;;;;;;;24.13;40.63;99200.41;4764337;30;20405;-90
2022/06/11 07:40:38;;;;;;;0.20;0.20;;;;;;;24.45;40.36;99198.19;4770950;30;20116;-87
2022/06/11 07:43:06;;;;;;;0.20;0.20;;;;;;;24.92;39.70;99198.09;4752332;30;20067;-87
2022/06/11 07:45:36;;;;;;;0.20;0.20;;;;;;;25.00;38.94;99199.16;4770564;30;20103;-88
2022/06/11 07:48:04;;;;;;;0.20;0.20;;;;;;;24.79;39.63;99193.63;4755248;30;20124;-88
2022/06/11 07:50:34;;;;;;;0.20;0.20;;;;;;;24.28;40.14;99206.50;4773080;30;20132;-87
2022/06/11 07:53:03;;;;;;;0.20;0.20;;;;;;;23.88;41.03;99206.81;4771674;30;20067;-86
2022/06/11 07:55:31;;;;;;;0.20;0.20;;;;;;;23.65;41.90;99208.91;4772254;30;20129;-87
2022/06/11 07:57:59;;;;;;;0.10;0.10;;;;;;;23.34;41.51;99216.22;4767518;30;20193;-87
2022/06/11 08:00:32;;;;;;;0.20;0.20;;;;;;;23.17;41.60;99215.41;4772284;30;20059;-86
2022/06/11 08:02:59;;;;;;;0.20;0.20;;;;;;;23.01;41.94;99213.13;4761677;30;20508;-89
2022/06/11 08:05:26;;;;;;;0.20;0.20;;;;;;;23.03;41.80;99210.06;4764322;30;20141;-88
2022/06/11 08:08:11;;;;;;;0.20;0.20;;;;;;;23.27;41.84;99206.84;4792552;24;20052;-87
2022/06/11 08:10:42;;;;;;;0.20;0.20;;;;;;;23.42;41.23;99214.63;4701060;30;20111;-88
2022/06/11 08:13:12;;;;;;;0.20;0.20;;;;;;;23.46;41.24;99204.56;4702671;30;20253;-87
2022/06/11 08:15:42;;;;;;;0.20;0.20;;;;;;;23.62;40.77;99206.81;4702551;30;20061;-86
2022/06/11 08:18:09;;;;;;;0.20;0.20;;;;;;;23.75;40.76;99206.69;4687762;30;20069;-89
2022/06/11 08:20:38;;;;;;;0.20;0.20;;;;;;;23.88;39.90;99212.31;4703037;30;20065;-88
2022/06/11 08:23:06;;;;;;;0.20;0.20;;;;;;;24.04;40.43;99216.16;4716040;30;20057;-87
2022/06/11 08:25:34;;;;;;;0.28;0.28;;;;;;;24.19;39.26;99215.63;4688144;30;20127;-87
2022/06/11 08:28:01;;;;;;;0.20;0.20;;;;;;;24.46;38.65;99215.53;4712184;30;20757;-89
2022/06/11 08:30:30;;;;;;;0.30;0.30;;;;;;;24.68;38.00;99208.94;4715037;30;20543;-88
2022/06/11 08:32:58;;;;;;;0.20;0.20;;;;;;;24.91;36.95;99206.69;4714758;30;20050;-86
2022/06/11 08:35:33;;;;;;;0.20;0.20;;;;;;;24.91;36.38;99213.00;4711237;30;20429;-88
2022/06/11 08:38:02;;;;;;;0.20;0.20;;;;;;;25.01;36.19;99206.28;4723735;30;20054;-88
2022/06/11 08:40:39;;;;;;;0.20;0.20;;;;;;;24.99;36.03;99214.94;4712298;30;20053;-89
2022/06/11 08:43:19;;;;;;;0.20;0.20;;;;;;;25.00;35.61;99215.72;4726341;30;20054;-87
2022/06/11 08:45:56;;;;;;;0.20;0.20;;;;;;;25.20;35.62;99205.88;4694158;30;20070;-88
2022/06/11 08:48:32;;;;;;;0.20;0.20;;;;;;;25.50;36.15;99212.13;4720402;30;20061;-89
2022/06/11 08:51:17;;;;;;;0.20;0.20;;;;;;;25.64;36.07;99211.81;4717836;30;20430;-88
2022/06/11 08:53:45;;;;;;;0.20;0.20;;;;;;;26.07;34.81;99210.56;4700960;30;20519;-88
2022/06/11 08:56:43;;;;;;;0.20;0.20;;;;;;;26.00;35.56;99213.09;4701872;30;20050;-87
2022/06/11 08:59:35;;;;;;;0.20;0.20;;;;;;;25.88;34.54;99211.94;4712076;30;20062;-87
2022/06/11 09:02:21;;;;;;;0.20;0.20;;;;;;;25.56;35.28;99221.00;4701462;30;20517;-88
2022/06/11 09:05:09;;;;;;;0.20;0.20;;;;;;;25.58;36.40;99211.22;4694848;30;20088;-86
2022/06/11 09:08:03;;;;;;;0.20;0.20;;;;;;;25.65;36.50;99217.00;4687695;30;20096;-87
2022/06/11 09:10:49;;;;;;;0.20;0.20;;;;;;;25.51;36.65;99214.53;4702422;30;20491;-87
2022/06/11 09:13:23;;;;;;;0.20;0.20;;;;;;;25.45;36.17;99213.13;4690624;30;20053;-87
2022/06/11 09:16:41;;;;;;;0.20;0.20;;;;;;;25.65;37.02;99205.94;4708575;30;20069;-86
2022/06/11 09:19:17;;;;;;;0.20;0.20;;;;;;;25.81;36.33;99211.63;4702343;30;20053;-88
2022/06/11 09:22:14;;;;;;;0.20;0.20;;;;;;;25.70;36.94;99215.97;4700657;30;20065;-83
2022/06/11 09:24:52;;;;;;;0.20;0.20;;;;;;;25.66;36.82;99213.09;4690888;30;20058;-85
2022/06/11 09:27:38;;;;;;;0.10;0.10;;;;;;;25.30;37.70;99209.03;4698413;30;20481;-86
2022/06/11 09:30:10;;;;;;;0.20;0.20;;;;;;;25.45;38.62;99213.13;4698065;30;20113;-86
2022/06/11 09:32:45;;;;;;;0.20;0.20;;;;;;;25.61;37.60;99206.97;4685210;30;20061;-85
2022/06/11 09:35:20;;;;;;;0.40;0.40;;;;;;;26.65;36.50;99211.34;4698061;30;20540;-84
2022/06/11 09:37:56;;;;;;;0.30;0.30;;;;;;;27.04;35.48;99206.19;4697725;30;20183;-84
2022/06/11 09:40:42;;;;;;;0.20;0.20;;;;;;;27.25;34.72;99217.16;4684139;30;20066;-84
2022/06/11 09:43:30;;;;;;;0.30;0.30;;;;;;;27.80;33.79;99210.00;4704152;30;20053;-84
2022/06/11 09:46:03;;;;;;;0.30;0.30;;;;;;;27.98;33.08;99212.47;4701880;30;20535;-84
2022/06/11 09:48:37;;;;;;;0.30;0.30;;;;;;;28.52;32.70;99217.44;4665714;30;20062;-86
2022/06/11 09:51:41;;;;;;;0.20;0.20;;;;;;;28.42;32.42;99212.41;4663928;30;20090;-84
2022/06/11 09:54:46;;;;;;;0.20;0.20;;;;;;;27.68;32.66;99212.84;4673941;30;20070;-86
2022/06/11 09:57:35;;;;;;;0.20;0.20;;;;;;;27.06;33.73;99212.19;4694223;30;20086;-86
2022/06/11 10:00:02;;;;;;;0.20;0.20;;;;;;;27.30;33.38;99199.50;4693555;30;20061;-85
2022/06/11 10:06:07;;;;;;;0.20;0.20;;;;;;;27.20;32.87;99196.03;4691066;30;20060;-85
2022/06/11 10:08:56;;;;;;;0.20;0.20;;;;;;;27.31;31.77;99192.78;4716660;30;20060;-87
2022/06/11 10:11:23;;;;;;;0.20;0.20;;;;;;;26.71;32.63;99198.91;4724632;30;20061;-87
2022/06/11 10:14:29;;;;;;;0.50;0.50;;;;;;;27.37;33.72;99185.81;4728330;30;20597;-86
2022/06/11 10:17:16;;;;;;;0.50;0.50;;;;;;;29.11;30.79;99194.22;4691352;30;20054;-85
2022/06/11 10:20:09;;;;;;;0.40;0.40;;;;;;;30.12;28.02;99179.50;4672205;30;20061;-85
2022/06/11 10:22:42;;;;;;;0.40;0.40;;;;;;;30.37;28.43;99180.75;4673709;30;20088;-86
2022/06/11 10:25:18;;;;;;;0.30;0.30;;;;;;;30.18;28.34;99172.44;4687600;30;20057;-92
2022/06/11 10:28:19;;;;;;;0.40;0.40;;;;;;;29.81;29.04;99173.78;4700245;30;20127;-89
2022/06/11 10:30:54;;;;;;;0.40;0.40;;;;;;;30.19;27.57;99165.69;4689581;30;20062;-89
2022/06/11 10:33:38;;;;;;;0.40;0.40;;;;;;;30.98;27.32;99162.16;4681236;30;20148;-89
2022/06/11 10:36:11;;;;;;;0.40;0.40;;;;;;;31.44;26.49;99159.16;4670289;30;20130;-88
2022/06/11 10:38:47;;;;;;;0.40;0.40;;;;;;;32.14;26.43;99160.28;4674154;30;20070;-89
2022/06/11 10:41:52;;;;;;;0.30;0.30;;;;;;;32.63;26.37;99161.06;4691607;30;20203;-87
2022/06/11 10:44:31;;;;;;;;;;;;;;;32.06;26.72;99164.22;4643030;30;20174;-89
2022/06/11 10:46:59;;;;;;;0.35;0.35;;;;;;;32.66;26.27;99165.88;4662052;30;20408;-87
2022/06/11 10:49:28;;;;;;;0.30;0.30;;;;;;;32.96;26.57;99162.06;4661011;30;20062;-88
2022/06/11 10:52:04;;;;;;;0.32;0.32;;;;;;;32.73;26.35;99154.75;4663334;30;20068;-89
2022/06/11 10:54:32;;;;;;;0.40;0.40;;;;;;;32.73;26.10;99157.53;4680057;30;20069;-89
2022/06/11 10:57:25;;;;;;;0.40;0.40;;;;;;;32.74;25.53;99161.97;4681172;30;20049;-88
2022/06/11 11:00:09;;;;;;;0.30;0.30;;;;;;;33.43;25.19;99163.88;4702666;30;20054;-87
2022/06/11 11:02:49;;;;;;;0.10;0.10;;;;;;;31.71;26.63;99162.66;4702906;30;20406;-88
2022/06/11 11:05:18;;;;;;;0.10;0.10;;;;;;;29.99;28.41;99162.19;4681401;30;20058;-89
2022/06/11 11:07:51;;;;;;;0.10;0.10;;;;;;;29.11;29.87;99171.19;4699271;30;20517;-89
2022/06/11 11:10:36;;;;;;;0.10;0.10;;;;;;;28.91;29.80;99168.34;4695861;30;20076;-89
2022/06/11 11:13:18;;;;;;;0.20;0.20;;;;;;;29.47;29.38;99171.91;4703505;30;20056;-88
2022/06/11 11:15:55;;;;;;;0.20;0.20;;;;;;;29.73;29.02;99177.63;4704009;30;20478;-89
2022/06/11 11:18:26;;;;;;;0.20;0.20;;;;;;;30.12;28.10;99169.16;4702490;30;20069;-89
2022/06/11 11:20:56;;;;;;;0.20;0.20;;;;;;;30.84;27.78;99165.56;4696301;30;20061;-88
2022/06/11 11:23:28;;;;;;;0.20;0.20;;;;;;;30.20;28.20;99162.53;4698330;30;20081;-89
2022/06/11 11:26:12;;;;;;;0.20;0.20;;;;;;;29.16;30.09;99173.66;4698730;30;20085;-89
2022/06/11 11:28:55;;;;;;;0.10;0.10;;;;;;;28.62;30.59;99169.69;4698561;30;20487;-87
2022/06/11 11:31:38;;;;;;;0.10;0.10;;;;;;;28.38;31.14;99176.22;4698030;30;20123;-88
2022/06/11 11:34:20;;;;;;;0.10;0.10;;;;;;;27.93;31.69;99171.94;4683978;30;20098;-88
2022/06/11 11:36:48;;;;;;;0.10;0.10;;;;;;;27.47;32.57;99173.41;4696552;30;20057;-89
2022/06/11 11:39:21;;;;;;;0.10;0.10;;;;;;;27.36;32.55;99157.31;4697846;30;20076;-88
2022/06/11 11:42:22;;;;;;;0.10;0.10;;;;;;;27.31;32.97;99173.38;4698991;30;20061;-90
2022/06/11 11:44:57;;;;;;;0.10;0.10;;;;;;;27.23;33.32;99164.84;4677338;30;20065;-90
2022/06/11 11:47:39;;;;;;;0.20;0.20;;;;;;;27.30;32.91;99166.25;4697556;30;20089;-89
2022/06/11 11:50:12;;;;;;;0.20;0.20;;;;;;;27.44;32.78;99166.63;4702011;30;20057;-89
2022/06/11 11:52:51;;;;;;;0.20;0.20;;;;;;;27.94;32.91;99159.69;4702790;30;20061;-88
2022/06/11 11:55:27;;;;;;;0.20;0.20;;;;;;;28.42;32.10;99163.25;4711538;30;20057;-90
2022/06/11 11:58:18;;;;;;;0.20;0.20;;;;;;;28.66;31.80;99161.44;4697512;30;20058;-88
2022/06/11 12:00:58;;;;;;;0.20;0.20;;;;;;;29.14;30.95;99162.09;4697700;30;20126;-87
2022/06/11 12:03:43;;;;;;;0.30;0.30;;;;;;;30.08;29.80;99146.06;4675422;30;20064;-86
2022/06/11 12:06:15;;;;;;;0.40;0.40;;;;;;;31.57;27.75;99145.75;4679358;30;20089;-87
2022/06/11 12:08:49;;;;;;;0.40;0.40;;;;;;;33.06;26.32;99149.38;4665424;30;20501;-88
2022/06/11 12:11:28;;;;;;;0.30;0.30;;;;;;;33.22;25.83;99153.44;4679582;30;20062;-89
2022/06/11 12:13:59;;;;;;;0.20;0.20;;;;;;;32.18;27.05;99146.34;4681081;30;20062;-89